Saint-Eustache, Canada
Current Conditions -  °F | °C
As of 8:00 AM on Friday 19 Dec 2014 (Local Time) from CYMX Reporting Station
Scattered Clouds Scattered Clouds  
Wind Chill: 11°   Ceiling: Unl
Heat Index: 19°   Visibility: 25mi
Dew Point: 14°   Wind: 6mph
Humidity: 80%   Direction: 260°W
Pressure: 30.05"   Gusts: NA
Location:  45.57°N, 73.9°W
Report Text: CYMX 191300Z 26005KT 25SM FEW020 SCT080 M07/M10 A3005 RMK SC1AC2 SLP182
Loading
Personal Weather Stations






























Interactive Weather Map New forecast layout! Learn more

10-Day Weather Forecast

Advertisements
Track Severe Weather on mobile